createdAt,value
2022-08-29T00:03:00.273Z,17.90
2022-08-29T00:06:07.229Z,18.32
2022-08-29T00:09:14.122Z,18.07
2022-08-29T00:12:20.808Z,18.20
2022-08-29T00:15:28.186Z,18.18
2022-08-29T00:18:36.833Z,18.29
2022-08-29T00:21:43.630Z,18.33
2022-08-29T00:24:49.950Z,18.26
2022-08-29T00:27:56.458Z,18.42
2022-08-29T00:31:02.794Z,18.10
2022-08-29T00:34:10.364Z,18.42
2022-08-29T00:37:16.603Z,18.37
2022-08-29T00:40:27.364Z,18.32
2022-08-29T00:43:36.246Z,18.38
2022-08-29T00:46:49.731Z,18.27
2022-08-29T00:49:58.711Z,18.22
2022-08-29T00:53:07.658Z,18.44
2022-08-29T00:56:17.132Z,18.39
2022-08-29T00:59:28.122Z,18.37
2022-08-29T01:02:38.532Z,18.26
2022-08-29T01:05:48.792Z,18.14
2022-08-29T01:08:57.409Z,18.25
2022-08-29T01:12:17.263Z,17.98
2022-08-29T01:15:23.613Z,17.57
2022-08-29T01:18:33.430Z,17.28
2022-08-29T01:21:52.107Z,17.03
2022-08-29T01:25:01.258Z,16.95
2022-08-29T01:28:13.440Z,17.43
2022-08-29T01:31:37.426Z,17.55
2022-08-29T01:34:49.047Z,17.83
2022-08-29T01:37:55.587Z,17.67
2022-08-29T01:41:03.290Z,17.60
2022-08-29T01:44:12.029Z,17.86
2022-08-29T01:47:18.631Z,17.64
2022-08-29T01:50:25.877Z,17.75
2022-08-29T01:53:32.036Z,17.92
2022-08-29T01:56:43.343Z,17.88
2022-08-29T01:59:50.023Z,17.30
2022-08-29T02:02:57.141Z,17.54
2022-08-29T02:06:05.156Z,17.61
2022-08-29T02:09:11.755Z,17.45
2022-08-29T02:12:20.767Z,17.33
2022-08-29T02:15:27.035Z,17.64
2022-08-29T02:18:34.264Z,17.16
2022-08-29T02:21:41.157Z,16.94
2022-08-29T02:24:47.660Z,16.78
2022-08-29T02:27:55.397Z,17.00
2022-08-29T02:31:01.828Z,17.02
2022-08-29T02:34:09.412Z,16.80
2022-08-29T02:37:18.332Z,16.80
2022-08-29T02:40:31.602Z,16.74
2022-08-29T02:43:39.995Z,16.48
2022-08-29T02:46:46.564Z,16.17
2022-08-29T02:49:53.139Z,16.30
2022-08-29T02:52:59.421Z,16.54
2022-08-29T02:56:05.644Z,16.60
2022-08-29T02:59:16.436Z,16.37
2022-08-29T03:02:22.609Z,16.08
2022-08-29T03:05:30.656Z,16.12
2022-08-29T03:08:36.760Z,16.42
2022-08-29T03:11:43.020Z,16.71
2022-08-29T03:14:50.833Z,16.87
2022-08-29T03:17:58.763Z,16.69
2022-08-29T03:21:05.078Z,16.04
2022-08-29T03:24:11.223Z,15.72
2022-08-29T03:27:18.374Z,16.03
2022-08-29T03:30:27.388Z,16.02
2022-08-29T03:33:33.864Z,16.19
2022-08-29T03:36:40.555Z,15.97
2022-08-29T03:39:47.264Z,15.95
2022-08-29T03:42:53.295Z,16.00
2022-08-29T03:46:01.070Z,16.34
2022-08-29T03:49:08.848Z,16.26
2022-08-29T03:52:15.361Z,15.88
2022-08-29T03:55:22.079Z,15.85
2022-08-29T03:58:28.521Z,15.98
2022-08-29T04:01:36.194Z,16.12
2022-08-29T04:05:03.504Z,16.55
2022-08-29T04:08:12.213Z,16.30
2022-08-29T04:11:20.935Z,16.41
2022-08-29T04:14:27.211Z,16.35
2022-08-29T04:17:35.806Z,16.29
2022-08-29T04:20:45.896Z,15.81
2022-08-29T04:23:52.258Z,15.85
2022-08-29T04:26:58.936Z,16.34
2022-08-29T04:30:10.164Z,16.72
2022-08-29T04:33:22.500Z,16.88
2022-08-29T04:36:29.372Z,16.87
2022-08-29T04:39:36.335Z,16.84
2022-08-29T04:42:43.601Z,16.28
2022-08-29T04:45:55.939Z,16.16
2022-08-29T04:49:04.632Z,16.61
2022-08-29T04:52:11.414Z,16.90
2022-08-29T04:55:21.694Z,16.92
2022-08-29T04:58:29.819Z,17.35
2022-08-29T05:01:37.291Z,17.21
2022-08-29T05:04:46.566Z,17.36
2022-08-29T05:07:52.763Z,17.48
2022-08-29T05:10:59.180Z,17.52
2022-08-29T05:14:05.620Z,17.80
2022-08-29T05:17:12.137Z,17.87
2022-08-29T05:20:19.816Z,17.78
2022-08-29T05:23:26.467Z,18.04
2022-08-29T05:26:34.206Z,18.11
2022-08-29T05:29:41.420Z,18.13
2022-08-29T05:32:47.555Z,18.23
2022-08-29T05:35:55.435Z,18.11
2022-08-29T05:39:01.971Z,18.08
2022-08-29T05:42:09.870Z,17.95
2022-08-29T05:45:16.209Z,18.19
2022-08-29T05:48:22.455Z,17.56
2022-08-29T05:51:30.117Z,17.34
2022-08-29T05:54:38.231Z,17.43
2022-08-29T05:57:44.396Z,17.78
2022-08-29T06:00:51.076Z,18.13
2022-08-29T06:03:58.638Z,18.19
2022-08-29T06:07:07.534Z,18.23
2022-08-29T06:10:14.045Z,18.45
2022-08-29T06:13:20.689Z,18.10
2022-08-29T06:16:28.674Z,19.28
2022-08-29T06:19:36.103Z,19.14
2022-08-29T06:22:43.908Z,19.75
2022-08-29T06:25:57.066Z,19.78
2022-08-29T06:29:06.027Z,20.34
2022-08-29T06:32:12.420Z,20.27
2022-08-29T06:35:18.739Z,20.61
2022-08-29T06:38:26.879Z,21.07
2022-08-29T06:41:32.991Z,20.88
2022-08-29T06:44:43.861Z,21.43
2022-08-29T06:47:50.947Z,21.86
2022-08-29T06:50:57.560Z,22.18
2022-08-29T06:54:07.386Z,22.20
2022-08-29T06:57:13.860Z,22.14
2022-08-29T07:00:22.388Z,22.66
2022-08-29T07:03:29.224Z,22.53
2022-08-29T07:06:36.990Z,22.37
2022-08-29T07:09:44.887Z,22.67
2022-08-29T07:12:51.665Z,22.98
2022-08-29T07:15:57.900Z,23.16
2022-08-29T07:19:05.251Z,23.28
2022-08-29T07:22:11.579Z,23.59
2022-08-29T07:25:20.198Z,23.25
2022-08-29T07:28:26.664Z,24.83
2022-08-29T07:31:33.665Z,24.20
2022-08-29T07:34:40.290Z,23.78
2022-08-29T07:37:50.659Z,24.32
2022-08-29T07:41:03.111Z,24.16
2022-08-29T07:44:10.085Z,24.46
2022-08-29T07:47:16.779Z,24.99
2022-08-29T07:50:23.389Z,24.82
2022-08-29T07:53:29.878Z,24.54
2022-08-29T07:56:44.739Z,24.89
2022-08-29T07:59:51.554Z,24.87
2022-08-29T08:02:57.742Z,25.08
2022-08-29T08:06:07.270Z,24.76
2022-08-29T08:09:15.482Z,25.57
2022-08-29T08:12:23.502Z,25.70
2022-08-29T08:15:30.054Z,26.46
2022-08-29T08:18:38.400Z,26.45
2022-08-29T08:21:49.773Z,26.47
2022-08-29T08:24:56.399Z,26.58
2022-08-29T08:28:04.810Z,26.07
2022-08-29T08:31:14.256Z,26.60
2022-08-29T08:34:22.044Z,27.12
2022-08-29T08:37:28.655Z,27.55
2022-08-29T08:40:35.205Z,26.77
2022-08-29T08:43:50.443Z,27.67
2022-08-29T08:46:59.809Z,28.14
2022-08-29T08:50:13.723Z,28.00
2022-08-29T08:53:23.776Z,27.78
2022-08-29T08:56:35.649Z,27.94
2022-08-29T08:59:45.828Z,28.68
2022-08-29T09:03:07.672Z,28.93
2022-08-29T09:06:27.091Z,28.93
2022-08-29T09:09:46.038Z,28.65
2022-08-29T09:13:02.135Z,28.79
2022-08-29T09:16:25.016Z,28.93
2022-08-29T09:19:33.135Z,28.78
2022-08-29T09:22:41.174Z,28.61
2022-08-29T09:25:48.739Z,29.36
2022-08-29T09:28:55.683Z,28.98
2022-08-29T09:32:10.356Z,29.01
2022-08-29T09:35:23.942Z,29.52
2022-08-29T09:38:30.471Z,29.74
2022-08-29T09:41:37.229Z,29.57
2022-08-29T09:44:54.682Z,29.79
2022-08-29T09:48:14.490Z,30.36
2022-08-29T09:51:28.744Z,30.87
2022-08-29T09:54:35.537Z,31.13
2022-08-29T09:57:42.515Z,30.60
2022-08-29T10:01:02.107Z,30.59
2022-08-29T10:04:12.010Z,29.74
2022-08-29T10:07:21.979Z,30.91
2022-08-29T10:10:30.821Z,30.65
2022-08-29T10:13:44.927Z,29.90
2022-08-29T10:17:20.561Z,30.55
2022-08-29T10:20:36.608Z,30.47
2022-08-29T10:23:58.338Z,29.97
2022-08-29T10:27:12.970Z,31.17
2022-08-29T10:30:22.986Z,30.00
2022-08-29T10:33:55.264Z,30.79
2022-08-29T10:37:07.158Z,30.76
2022-08-29T10:40:21.902Z,30.53
2022-08-29T10:43:41.603Z,31.10
2022-08-29T10:47:22.608Z,29.66
2022-08-29T10:50:45.287Z,28.77
2022-08-29T10:53:59.203Z,28.93
2022-08-29T10:57:08.724Z,28.40
2022-08-29T11:00:20.060Z,28.36
2022-08-29T11:03:36.318Z,28.96
2022-08-29T11:06:50.074Z,28.82
2022-08-29T11:10:02.966Z,30.16
2022-08-29T11:13:14.207Z,29.84
2022-08-29T11:16:25.876Z,30.17
2022-08-29T11:19:41.850Z,31.29
2022-08-29T11:22:53.442Z,30.54
2022-08-29T11:26:07.762Z,31.13
2022-08-29T11:29:22.423Z,31.16
2022-08-29T11:32:39.909Z,30.95
2022-08-29T11:36:04.961Z,30.70
2022-08-29T11:39:42.867Z,30.93
2022-08-29T11:42:52.686Z,32.05
2022-08-29T11:46:02.336Z,30.93
2022-08-29T11:49:38.239Z,30.76
2022-08-29T11:52:51.839Z,31.80
2022-08-29T11:56:27.526Z,30.15
2022-08-29T12:00:01.283Z,30.95
2022-08-29T12:03:56.895Z,29.98
2022-08-29T12:07:04.903Z,29.88
2022-08-29T12:10:14.822Z,30.33
2022-08-29T12:13:56.328Z,30.12
2022-08-29T12:17:06.483Z,30.01
2022-08-29T12:20:40.844Z,29.49
2022-08-29T12:23:47.156Z,29.98
2022-08-29T12:26:54.923Z,29.82
2022-08-29T12:30:01.588Z,28.91
2022-08-29T12:33:21.881Z,29.02
2022-08-29T12:36:52.607Z,28.35
2022-08-29T12:40:23.663Z,28.18
2022-08-29T12:43:37.480Z,28.24
2022-08-29T12:46:46.447Z,28.18
2022-08-29T12:49:58.459Z,28.43
2022-08-29T12:53:06.792Z,28.36
2022-08-29T12:56:18.242Z,28.74
2022-08-29T12:59:25.251Z,28.58
2022-08-29T13:02:37.825Z,28.42
2022-08-29T13:05:46.830Z,28.29
2022-08-29T13:08:53.207Z,28.54
2022-08-29T13:12:15.083Z,28.76
2022-08-29T13:15:23.316Z,28.86
2022-08-29T13:18:30.126Z,28.57
2022-08-29T13:21:38.270Z,28.27
2022-08-29T13:24:44.462Z,28.20
2022-08-29T13:28:01.591Z,28.40
2022-08-29T13:31:26.733Z,29.32
2022-08-29T13:34:32.930Z,29.38
2022-08-29T13:37:44.195Z,29.05
2022-08-29T13:40:52.316Z,27.96
2022-08-29T13:43:58.803Z,27.60
2022-08-29T13:47:15.467Z,26.80
2022-08-29T13:50:23.303Z,26.26
2022-08-29T13:53:31.970Z,26.38
2022-08-29T13:56:38.925Z,25.91
2022-08-29T13:59:45.547Z,25.76
2022-08-29T14:02:52.435Z,25.69
2022-08-29T14:05:59.187Z,25.34
2022-08-29T14:09:06.994Z,25.19
2022-08-29T14:12:14.538Z,25.15
2022-08-29T14:15:21.244Z,25.18
2022-08-29T14:18:27.584Z,24.97
2022-08-29T14:21:36.948Z,24.99
2022-08-29T14:24:51.511Z,24.75
2022-08-29T14:27:57.835Z,24.85
2022-08-29T14:31:04.573Z,24.86
2022-08-29T14:34:11.365Z,24.44
2022-08-29T14:37:17.574Z,24.42
2022-08-29T14:40:25.913Z,24.51
2022-08-29T14:43:39.605Z,24.46
2022-08-29T14:46:46.394Z,24.21
2022-08-29T14:49:52.584Z,24.20
2022-08-29T14:52:58.715Z,24.20
2022-08-29T14:56:06.885Z,23.94
2022-08-29T14:59:13.483Z,23.95
2022-08-29T15:02:21.047Z,23.98
2022-08-29T15:05:50.575Z,24.15
2022-08-29T15:08:58.863Z,23.61
2022-08-29T15:12:07.209Z,23.76
2022-08-29T15:15:13.841Z,23.59
2022-08-29T15:19:00.611Z,23.80
2022-08-29T15:21:47.385Z,23.70
2022-08-29T15:24:54.491Z,23.53
2022-08-29T15:28:02.144Z,23.56
2022-08-29T15:31:08.660Z,23.26
2022-08-29T15:34:15.603Z,23.23
2022-08-29T15:37:24.075Z,23.41
2022-08-29T15:40:30.399Z,23.45
2022-08-29T15:43:38.241Z,23.32
2022-08-29T15:46:50.513Z,23.44
2022-08-29T15:49:57.604Z,23.12
2022-08-29T15:53:03.899Z,23.21
2022-08-29T15:56:10.383Z,23.45
2022-08-29T15:59:24.878Z,23.23
2022-08-29T16:02:42.630Z,23.19
2022-08-29T16:05:49.290Z,23.52
2022-08-29T16:08:55.589Z,23.42
2022-08-29T16:12:01.963Z,23.38
2022-08-29T16:15:10.705Z,23.28
2022-08-29T16:18:17.571Z,22.96
2022-08-29T16:21:25.988Z,22.83
2022-08-29T16:24:33.691Z,22.89
2022-08-29T16:27:41.330Z,22.89
2022-08-29T16:30:49.978Z,22.71
2022-08-29T16:33:56.444Z,22.58
2022-08-29T16:37:03.252Z,22.52
2022-08-29T16:40:10.455Z,22.16
2022-08-29T16:43:16.678Z,22.36
2022-08-29T16:46:25.973Z,22.51
2022-08-29T16:49:32.254Z,22.35
2022-08-29T16:52:39.439Z,22.19
2022-08-29T16:55:45.596Z,22.04
2022-08-29T16:59:01.984Z,21.96
2022-08-29T17:02:09.664Z,21.88
2022-08-29T17:05:15.812Z,21.72
2022-08-29T17:08:20.883Z,21.84
2022-08-29T17:11:26.432Z,21.70
2022-08-29T17:14:31.430Z,21.56
2022-08-29T17:17:39.220Z,21.53
2022-08-29T17:20:46.217Z,21.39
2022-08-29T17:23:52.652Z,21.38
2022-08-29T17:26:58.994Z,21.40
2022-08-29T17:30:06.358Z,21.28
2022-08-29T17:33:14.366Z,21.31
2022-08-29T17:36:21.407Z,21.03
2022-08-29T17:39:27.660Z,21.20
2022-08-29T17:42:33.967Z,21.15
2022-08-29T17:45:40.944Z,21.37
2022-08-29T17:48:48.608Z,21.46
2022-08-29T17:51:55.382Z,21.21
2022-08-29T17:55:06.966Z,20.94
2022-08-29T17:58:14.727Z,20.94
2022-08-29T18:01:21.346Z,21.14
2022-08-29T18:04:29.579Z,20.87
2022-08-29T18:07:36.303Z,20.83
2022-08-29T18:10:42.791Z,21.17
2022-08-29T18:13:48.967Z,20.77
2022-08-29T18:16:56.298Z,20.23
2022-08-29T18:20:04.806Z,20.55
2022-08-29T18:23:11.206Z,20.64
2022-08-29T18:26:17.537Z,20.55
2022-08-29T18:29:23.754Z,20.80
2022-08-29T18:32:37.191Z,20.62
2022-08-29T18:35:45.910Z,20.25
2022-08-29T18:38:52.392Z,19.99
2022-08-29T18:41:58.673Z,19.89
2022-08-29T18:45:05.476Z,20.13
2022-08-29T18:48:12.634Z,20.10
2022-08-29T18:51:21.317Z,19.56
2022-08-29T18:54:27.779Z,19.97
2022-08-29T18:57:35.104Z,19.88
2022-08-29T19:00:42.826Z,19.81
2022-08-29T19:03:49.359Z,19.85
2022-08-29T19:06:57.055Z,19.99
2022-08-29T19:10:03.428Z,19.96
2022-08-29T19:13:09.793Z,19.84
2022-08-29T19:16:16.588Z,19.78
2022-08-29T19:19:22.871Z,19.77
2022-08-29T19:22:29.587Z,19.62
2022-08-29T19:25:36.046Z,19.60
2022-08-29T19:28:42.443Z,19.58
2022-08-29T19:31:48.807Z,19.66
2022-08-29T19:34:55.474Z,19.76
2022-08-29T19:38:03.411Z,19.68
2022-08-29T19:41:10.406Z,18.93
2022-08-29T19:44:18.617Z,19.24
2022-08-29T19:47:25.095Z,19.55
2022-08-29T19:50:31.327Z,19.62
2022-08-29T19:53:41.474Z,19.72
2022-08-29T19:56:48.136Z,19.62
2022-08-29T19:59:54.844Z,19.62
2022-08-29T20:03:01.588Z,19.52
2022-08-29T20:06:09.340Z,19.43
2022-08-29T20:09:17.376Z,19.42
2022-08-29T20:12:24.007Z,19.58
2022-08-29T20:15:31.161Z,19.35
2022-08-29T20:18:38.315Z,19.35
2022-08-29T20:21:45.058Z,19.07
2022-08-29T20:24:53.106Z,19.05
2022-08-29T20:27:59.455Z,19.03
2022-08-29T20:31:07.016Z,19.19
2022-08-29T20:34:14.265Z,19.23
2022-08-29T20:37:22.787Z,19.24
2022-08-29T20:40:30.328Z,19.46
2022-08-29T20:43:39.163Z,19.48
2022-08-29T20:46:45.970Z,19.34
2022-08-29T20:49:57.020Z,19.36
2022-08-29T20:53:03.395Z,19.23
2022-08-29T20:56:11.320Z,19.16
2022-08-29T20:59:18.282Z,19.30
2022-08-29T21:02:25.017Z,19.19
2022-08-29T21:05:41.242Z,19.13
2022-08-29T21:08:47.838Z,18.97
2022-08-29T21:11:55.694Z,18.49
2022-08-29T21:15:02.000Z,18.39
2022-08-29T21:18:08.900Z,18.49
2022-08-29T21:21:15.080Z,18.72
2022-08-29T21:24:21.738Z,18.28
2022-08-29T21:27:30.802Z,17.80
2022-08-29T21:30:37.788Z,17.47
2022-08-29T21:33:46.016Z,17.94
2022-08-29T21:36:52.195Z,18.43
2022-08-29T21:39:58.961Z,18.37
2022-08-29T21:43:08.561Z,18.41
2022-08-29T21:46:16.550Z,17.90
2022-08-29T21:49:22.959Z,18.02
2022-08-29T21:52:29.527Z,17.98
2022-08-29T21:55:35.730Z,18.46
2022-08-29T21:58:43.538Z,18.28
2022-08-29T22:01:54.507Z,17.99
2022-08-29T22:05:01.582Z,17.92
2022-08-29T22:08:08.592Z,18.09
2022-08-29T22:11:22.673Z,18.10
2022-08-29T22:14:44.563Z,18.16
2022-08-29T22:17:50.843Z,18.17
2022-08-29T22:20:58.447Z,18.07
2022-08-29T22:24:06.823Z,17.80
2022-08-29T22:27:13.428Z,17.44
2022-08-29T22:30:21.383Z,17.56
2022-08-29T22:33:34.772Z,17.11
2022-08-29T22:36:41.107Z,17.14
2022-08-29T22:39:47.628Z,17.59
2022-08-29T22:42:53.876Z,18.13
2022-08-29T22:46:01.628Z,17.80
2022-08-29T22:49:08.252Z,17.88
2022-08-29T22:52:14.554Z,17.79
2022-08-29T22:58:27.347Z,18.43
2022-08-29T23:01:37.099Z,18.27
2022-08-29T23:04:44.686Z,18.14
2022-08-29T23:07:51.670Z,18.42
2022-08-29T23:10:57.932Z,17.98
2022-08-29T23:14:05.691Z,18.15
2022-08-29T23:17:15.219Z,18.24
2022-08-29T23:20:21.778Z,18.12
2022-08-29T23:23:28.330Z,18.29
2022-08-29T23:26:35.327Z,18.33
2022-08-29T23:29:42.009Z,18.07
2022-08-29T23:32:50.939Z,17.80
2022-08-29T23:35:57.767Z,17.29
2022-08-29T23:39:03.959Z,17.41
2022-08-29T23:42:10.073Z,17.68
2022-08-29T23:45:16.822Z,17.89
2022-08-29T23:48:25.863Z,17.76
2022-08-29T23:51:33.194Z,18.06
2022-08-29T23:54:39.589Z,18.13
2022-08-29T23:57:46.859Z,18.54
